METAR AND TAF INFORMATION

Deprecated: The each() function is deprecated. This message will be suppressed on further calls in /home/customer/www/vueling-va.com/public_html/VAM/vam/helpers/get_metar.php on line 20
METAR FOR GCRR
ADDS - METARS form results

(1053 UTC 25 September 2020)
Data provider http://aviationweather.gov/metar/data/
 
METAR text: GCRR 251030Z 05014KT CAVOK 27/20 Q1022
Conditions at: GCRR (ARRECIFE/LANZARO, ES) observed 1030 UTC 25 September 2020
Temperature: 27.0°C (81°F)
Dewpoint: 20.0°C (68°F) [RH = 66%]
Pressure (altimeter): 30.18 inches Hg (1022.0 mb)
Winds: from the NE (50 degrees) at 16 MPH (14 knots; 7.2 m/s)
Visibility: 6 or more miles (10+ km)
Ceiling: ceiling and visibility are OK
Clouds: unknown
Weather: no significant weather observed at this time

METAR text: GCRR 251000Z 06013KT CAVOK 27/19 Q1022
Conditions at: GCRR (ARRECIFE/LANZARO, ES) observed 1000 UTC 25 September 2020
Temperature: 27.0°C (81°F)
Dewpoint: 19.0°C (66°F) [RH = 62%]
Pressure (altimeter): 30.18 inches Hg (1022.0 mb)
Winds: from the ENE (60 degrees) at 15 MPH (13 knots; 6.7 m/s)
Visibility: 6 or more miles (10+ km)
Ceiling: ceiling and visibility are OK
Clouds: unknown
Weather: no significant weather observed at this time

Forecast for: GCRR (ARRECIFE/LANZARO, ES)
Text: TAF GCRR 250800Z 2509/2609 08015KT CAVOK TX32/2516Z TN21/2606Z
Forecast period: 0900 to 1500 UTC 25 September 2020
Forecast type: FROM: standard forecast or significant change
Winds: from the E (80 degrees) at 17 MPH (15 knots; 7.7 m/s)
Visibility: 6 or more miles (10+ km)
Ceiling: unknown
Clouds: missing
Weather: no significant weather forecast for this period
Text: BECMG 2515/2517 36017KT
Forecast period: 1500 UTC 25 September 2020 to 0900 UTC 26 September 2020
Forecast type: BECOMING: Conditions expected to become as follows by 1700 UTC 25 September 2020
Winds: from the N (360 degrees) at 20 MPH (17 knots; 8.7 m/s)
Visibility: 6 or more miles (10+ km)
Ceiling: unknown
Clouds: missing
Weather: no significant weather forecast for this period

 AIRPORT MAP

 RUNWAY INFORMATION
Runway 03 Runway length 7874 ft Runway width 148 ft
Runway elevation 18 ft Runway displaced threshold 0 ft Runway heading 27
Runway 21 Runway length 7874 ft Runway width 148 ft
Runway elevation 47 ft Runway displaced threshold 0 ft Runway heading 207

 AIRPORT FREQUENCIES
Type APP Name CANARIAS A Frequency 129.3 MHZ
Type ATIS Name ATIS Frequency 118.625 MHZ
Type GND Name GND Frequency 121.8 MHZ
Type TWR Name TWR Frequency 120.7 MHZ

 AIRPORT NEAR NAVIGATION AIDS
Type VOR-DME Name Lanzarote Frequency 113700 KHZ
Type NDB Name Lanzarote Frequency 310 KHZ
Type VOR-DME Name Lanzarote Frequency 115200 KHZ
Type TACAN Name Lanzarote Frequency 114700 KHZ



Powered by Virtual Airlines Manager [v2.6.2]